Terminal Aerodrome Forecast
Issued by NWS Charleston, SC

Current Version | Previous Version | Text Only | Print | Product List | Glossary Off
Versions: 1 2 3 4 5 6 7 8 9 10 11 12 13 14 15 16 17 18 19 20 21 22 23 24 25 26

251
FTUS42 KCHS 251120
TAFCHS
TAF
KCHS 251120Z 2512/2612 25010KT P6SM FEW030 SCT080
     FM251400 26018G27KT P6SM SCT050
     FM252300 27010KT P6SM SKC=

USA.gov is the U.S. government's official web portal to all federal, state and local government web resources and services.